sensor_id;sensor_type;location;lat;lon;timestamp;temperature;humidity
51811;DHT22;52468;40.116;18.296;2022-10-16T00:01:39;14.30;82.60
51811;DHT22;52468;40.116;18.296;2022-10-16T00:04:09;14.20;82.70
51811;DHT22;52468;40.116;18.296;2022-10-16T00:06:37;14.20;82.70
51811;DHT22;52468;40.116;18.296;2022-10-16T00:09:06;14.30;82.70
51811;DHT22;52468;40.116;18.296;2022-10-16T00:11:36;14.20;82.80
51811;DHT22;52468;40.116;18.296;2022-10-16T00:14:08;14.20;82.70
51811;DHT22;52468;40.116;18.296;2022-10-16T00:16:36;14.30;82.90
51811;DHT22;52468;40.116;18.296;2022-10-16T00:19:04;14.30;82.90
51811;DHT22;52468;40.116;18.296;2022-10-16T00:21:34;14.30;82.90
51811;DHT22;52468;40.116;18.296;2022-10-16T00:24:21;14.30;82.80
51811;DHT22;52468;40.116;18.296;2022-10-16T00:26:49;14.30;82.90
51811;DHT22;52468;40.116;18.296;2022-10-16T00:29:18;14.30;82.80
51811;DHT22;52468;40.116;18.296;2022-10-16T00:31:46;14.30;83.00
51811;DHT22;52468;40.116;18.296;2022-10-16T00:34:13;14.30;82.90
51811;DHT22;52468;40.116;18.296;2022-10-16T00:36:41;14.20;82.90
51811;DHT22;52468;40.116;18.296;2022-10-16T00:39:09;14.20;83.00
51811;DHT22;52468;40.116;18.296;2022-10-16T00:41:37;14.20;83.00
51811;DHT22;52468;40.116;18.296;2022-10-16T00:47:34;14.10;83.00
51811;DHT22;52468;40.116;18.296;2022-10-16T00:50:16;14.10;83.10
51811;DHT22;52468;40.116;18.296;2022-10-16T00:52:48;14.10;83.00
51811;DHT22;52468;40.116;18.296;2022-10-16T00:55:17;14.10;83.10
51811;DHT22;52468;40.116;18.296;2022-10-16T00:57:45;14.10;83.20
51811;DHT22;52468;40.116;18.296;2022-10-16T01:00:18;14.10;83.10
51811;DHT22;52468;40.116;18.296;2022-10-16T01:02:58;14.10;82.90
51811;DHT22;52468;40.116;18.296;2022-10-16T01:05:35;14.10;82.80
51811;DHT22;52468;40.116;18.296;2022-10-16T01:08:13;14.10;82.80
51811;DHT22;52468;40.116;18.296;2022-10-16T01:13:24;14.00;83.10
51811;DHT22;52468;40.116;18.296;2022-10-16T01:16:00;14.00;83.20
51811;DHT22;52468;40.116;18.296;2022-10-16T01:21:33;14.00;83.70
51811;DHT22;52468;40.116;18.296;2022-10-16T01:24:57;14.00;83.70
51811;DHT22;52468;40.116;18.296;2022-10-16T01:27:13;14.00;83.60
51811;DHT22;52468;40.116;18.296;2022-10-16T01:29:54;14.00;83.40
51811;DHT22;52468;40.116;18.296;2022-10-16T01:32:43;14.00;83.20
51811;DHT22;52468;40.116;18.296;2022-10-16T01:40:49;14.00;83.70
51811;DHT22;52468;40.116;18.296;2022-10-16T01:43:21;14.00;83.80
51811;DHT22;52468;40.116;18.296;2022-10-16T01:45:52;14.00;83.90
51811;DHT22;52468;40.116;18.296;2022-10-16T01:48:21;14.00;84.10
51811;DHT22;52468;40.116;18.296;2022-10-16T01:51:02;14.00;83.90
51811;DHT22;52468;40.116;18.296;2022-10-16T01:53:31;14.00;84.00
51811;DHT22;52468;40.116;18.296;2022-10-16T01:56:02;13.90;84.10
51811;DHT22;52468;40.116;18.296;2022-10-16T01:58:34;14.00;84.10
51811;DHT22;52468;40.116;18.296;2022-10-16T02:01:04;13.90;84.00
51811;DHT22;52468;40.116;18.296;2022-10-16T02:03:37;14.00;83.80
51811;DHT22;52468;40.116;18.296;2022-10-16T02:06:07;13.90;83.70
51811;DHT22;52468;40.116;18.296;2022-10-16T02:08:36;13.90;83.90
51811;DHT22;52468;40.116;18.296;2022-10-16T02:11:06;13.80;83.90
51811;DHT22;52468;40.116;18.296;2022-10-16T02:13:48;13.80;84.00
51811;DHT22;52468;40.116;18.296;2022-10-16T02:16:16;13.80;84.20
51811;DHT22;52468;40.116;18.296;2022-10-16T02:18:44;13.80;84.40
51811;DHT22;52468;40.116;18.296;2022-10-16T02:21:32;13.80;84.60
51811;DHT22;52468;40.116;18.296;2022-10-16T02:24:09;13.80;84.20
51811;DHT22;52468;40.116;18.296;2022-10-16T02:29:40;13.80;84.30
51811;DHT22;52468;40.116;18.296;2022-10-16T02:32:13;13.80;84.30
51811;DHT22;52468;40.116;18.296;2022-10-16T02:34:44;13.80;84.50
51811;DHT22;52468;40.116;18.296;2022-10-16T02:37:13;13.80;84.50
51811;DHT22;52468;40.116;18.296;2022-10-16T02:39:41;13.80;84.40
51811;DHT22;52468;40.116;18.296;2022-10-16T02:42:13;13.90;84.30
51811;DHT22;52468;40.116;18.296;2022-10-16T02:44:41;13.90;84.40
51811;DHT22;52468;40.116;18.296;2022-10-16T02:47:09;13.90;84.50
51811;DHT22;52468;40.116;18.296;2022-10-16T02:49:38;13.80;84.30
51811;DHT22;52468;40.116;18.296;2022-10-16T02:52:06;13.80;84.10
51811;DHT22;52468;40.116;18.296;2022-10-16T02:54:34;13.80;84.10
51811;DHT22;52468;40.116;18.296;2022-10-16T02:57:02;13.90;84.30
51811;DHT22;52468;40.116;18.296;2022-10-16T02:59:29;13.80;84.50
51811;DHT22;52468;40.116;18.296;2022-10-16T03:01:57;13.80;84.50
51811;DHT22;52468;40.116;18.296;2022-10-16T03:04:25;13.80;84.60
51811;DHT22;52468;40.116;18.296;2022-10-16T03:06:53;13.80;84.60
51811;DHT22;52468;40.116;18.296;2022-10-16T03:09:21;13.70;84.70
51811;DHT22;52468;40.116;18.296;2022-10-16T03:11:48;13.70;84.70
51811;DHT22;52468;40.116;18.296;2022-10-16T03:14:16;13.60;84.60
51811;DHT22;52468;40.116;18.296;2022-10-16T03:16:44;13.60;84.40
51811;DHT22;52468;40.116;18.296;2022-10-16T03:19:12;13.60;84.40
51811;DHT22;52468;40.116;18.296;2022-10-16T03:21:40;13.60;84.40
51811;DHT22;52468;40.116;18.296;2022-10-16T03:24:08;13.60;84.50
51811;DHT22;52468;40.116;18.296;2022-10-16T03:26:36;13.60;84.30
51811;DHT22;52468;40.116;18.296;2022-10-16T03:29:03;13.70;84.30
51811;DHT22;52468;40.116;18.296;2022-10-16T03:31:31;13.60;84.30
51811;DHT22;52468;40.116;18.296;2022-10-16T03:33:59;13.60;84.20
51811;DHT22;52468;40.116;18.296;2022-10-16T03:36:28;13.60;84.40
51811;DHT22;52468;40.116;18.296;2022-10-16T03:38:56;13.60;84.60
51811;DHT22;52468;40.116;18.296;2022-10-16T03:41:24;13.50;84.40
51811;DHT22;52468;40.116;18.296;2022-10-16T03:43:52;13.50;84.50
51811;DHT22;52468;40.116;18.296;2022-10-16T03:46:20;13.50;84.70
51811;DHT22;52468;40.116;18.296;2022-10-16T03:48:48;13.50;84.40
51811;DHT22;52468;40.116;18.296;2022-10-16T03:51:16;13.50;84.30
51811;DHT22;52468;40.116;18.296;2022-10-16T03:53:44;13.50;84.50
51811;DHT22;52468;40.116;18.296;2022-10-16T03:56:11;13.50;84.50
51811;DHT22;52468;40.116;18.296;2022-10-16T03:58:39;13.50;84.70
51811;DHT22;52468;40.116;18.296;2022-10-16T04:01:07;13.50;84.60
51811;DHT22;52468;40.116;18.296;2022-10-16T04:03:35;13.50;84.70
51811;DHT22;52468;40.116;18.296;2022-10-16T04:06:03;13.50;84.90
51811;DHT22;52468;40.116;18.296;2022-10-16T04:08:31;13.40;84.90
51811;DHT22;52468;40.116;18.296;2022-10-16T04:11:02;13.50;84.80
51811;DHT22;52468;40.116;18.296;2022-10-16T04:13:30;13.50;84.80
51811;DHT22;52468;40.116;18.296;2022-10-16T04:15:58;13.50;84.60
51811;DHT22;52468;40.116;18.296;2022-10-16T04:18:26;13.50;84.60
51811;DHT22;52468;40.116;18.296;2022-10-16T04:20:54;13.50;84.30
51811;DHT22;52468;40.116;18.296;2022-10-16T04:23:23;13.50;84.10
51811;DHT22;52468;40.116;18.296;2022-10-16T04:25:51;13.50;84.00
51811;DHT22;52468;40.116;18.296;2022-10-16T04:28:18;13.40;84.30
51811;DHT22;52468;40.116;18.296;2022-10-16T04:30:46;13.30;84.40
51811;DHT22;52468;40.116;18.296;2022-10-16T04:33:14;13.40;84.50
51811;DHT22;52468;40.116;18.296;2022-10-16T04:35:42;13.30;84.60
51811;DHT22;52468;40.116;18.296;2022-10-16T04:38:10;13.30;84.70
51811;DHT22;52468;40.116;18.296;2022-10-16T04:40:38;13.30;84.70
51811;DHT22;52468;40.116;18.296;2022-10-16T04:43:06;13.30;85.00
51811;DHT22;52468;40.116;18.296;2022-10-16T04:45:35;13.30;84.90
51811;DHT22;52468;40.116;18.296;2022-10-16T04:48:03;13.40;84.70
51811;DHT22;52468;40.116;18.296;2022-10-16T04:50:31;13.40;84.70
51811;DHT22;52468;40.116;18.296;2022-10-16T04:53:06;13.40;84.70
51811;DHT22;52468;40.116;18.296;2022-10-16T04:55:34;13.40;84.40
51811;DHT22;52468;40.116;18.296;2022-10-16T04:58:02;13.30;84.30
51811;DHT22;52468;40.116;18.296;2022-10-16T05:00:30;13.30;84.30
51811;DHT22;52468;40.116;18.296;2022-10-16T05:02:58;13.30;84.50
51811;DHT22;52468;40.116;18.296;2022-10-16T05:05:28;13.40;84.70
51811;DHT22;52468;40.116;18.296;2022-10-16T05:07:56;13.40;84.90
51811;DHT22;52468;40.116;18.296;2022-10-16T05:10:24;13.30;85.30
51811;DHT22;52468;40.116;18.296;2022-10-16T05:12:51;13.40;85.20
51811;DHT22;52468;40.116;18.296;2022-10-16T05:15:20;13.40;85.50
51811;DHT22;52468;40.116;18.296;2022-10-16T05:17:51;13.50;85.50
51811;DHT22;52468;40.116;18.296;2022-10-16T05:20:19;13.50;85.80
51811;DHT22;52468;40.116;18.296;2022-10-16T05:22:47;13.60;85.90
51811;DHT22;52468;40.116;18.296;2022-10-16T05:25:16;13.80;85.80
51811;DHT22;52468;40.116;18.296;2022-10-16T05:27:47;13.90;85.90
51811;DHT22;52468;40.116;18.296;2022-10-16T05:30:17;14.00;86.20
51811;DHT22;52468;40.116;18.296;2022-10-16T05:32:49;14.10;86.10
51811;DHT22;52468;40.116;18.296;2022-10-16T05:35:18;14.20;85.80
51811;DHT22;52468;40.116;18.296;2022-10-16T05:37:46;14.40;85.80
51811;DHT22;52468;40.116;18.296;2022-10-16T05:40:14;14.30;85.80
51811;DHT22;52468;40.116;18.296;2022-10-16T05:42:42;14.40;86.10
51811;DHT22;52468;40.116;18.296;2022-10-16T05:45:11;14.50;86.30
51811;DHT22;52468;40.116;18.296;2022-10-16T05:47:39;14.60;86.10
51811;DHT22;52468;40.116;18.296;2022-10-16T05:50:07;14.60;86.20
51811;DHT22;52468;40.116;18.296;2022-10-16T05:52:35;14.80;86.30
51811;DHT22;52468;40.116;18.296;2022-10-16T05:55:04;14.90;86.10
51811;DHT22;52468;40.116;18.296;2022-10-16T05:57:32;15.10;85.60
51811;DHT22;52468;40.116;18.296;2022-10-16T05:59:59;15.30;85.90
51811;DHT22;52468;40.116;18.296;2022-10-16T06:02:28;15.50;85.10
51811;DHT22;52468;40.116;18.296;2022-10-16T06:04:56;15.60;85.30
51811;DHT22;52468;40.116;18.296;2022-10-16T06:07:24;15.70;85.50
51811;DHT22;52468;40.116;18.296;2022-10-16T06:09:52;15.80;85.40
51811;DHT22;52468;40.116;18.296;2022-10-16T06:12:21;16.00;85.00
51811;DHT22;52468;40.116;18.296;2022-10-16T06:14:48;16.00;85.00
51811;DHT22;52468;40.116;18.296;2022-10-16T06:17:16;16.10;84.80
51811;DHT22;52468;40.116;18.296;2022-10-16T06:19:44;16.20;85.30
51811;DHT22;52468;40.116;18.296;2022-10-16T06:22:12;16.40;84.80
51811;DHT22;52468;40.116;18.296;2022-10-16T06:24:40;16.50;84.80
51811;DHT22;52468;40.116;18.296;2022-10-16T06:27:08;16.60;84.70
51811;DHT22;52468;40.116;18.296;2022-10-16T06:29:36;16.60;84.50
51811;DHT22;52468;40.116;18.296;2022-10-16T06:32:03;16.80;84.40
51811;DHT22;52468;40.116;18.296;2022-10-16T06:34:31;16.80;84.30
51811;DHT22;52468;40.116;18.296;2022-10-16T06:36:59;16.90;84.40
51811;DHT22;52468;40.116;18.296;2022-10-16T06:39:27;17.00;84.40
51811;DHT22;52468;40.116;18.296;2022-10-16T06:41:55;17.10;84.40
51811;DHT22;52468;40.116;18.296;2022-10-16T06:44:26;17.20;84.00
51811;DHT22;52468;40.116;18.296;2022-10-16T06:46:53;17.20;84.00
51811;DHT22;52468;40.116;18.296;2022-10-16T06:49:21;17.40;84.10
51811;DHT22;52468;40.116;18.296;2022-10-16T06:51:50;17.50;84.20
51811;DHT22;52468;40.116;18.296;2022-10-16T06:54:18;17.50;84.20
51811;DHT22;52468;40.116;18.296;2022-10-16T06:56:46;17.60;84.10
51811;DHT22;52468;40.116;18.296;2022-10-16T06:59:13;17.80;84.00
51811;DHT22;52468;40.116;18.296;2022-10-16T07:01:41;18.00;84.10
51811;DHT22;52468;40.116;18.296;2022-10-16T07:04:09;18.10;83.60
51811;DHT22;52468;40.116;18.296;2022-10-16T07:06:37;18.20;83.50
51811;DHT22;52468;40.116;18.296;2022-10-16T07:09:09;18.30;83.00
51811;DHT22;52468;40.116;18.296;2022-10-16T07:11:39;18.50;83.30
51811;DHT22;52468;40.116;18.296;2022-10-16T07:14:18;18.60;83.20
51811;DHT22;52468;40.116;18.296;2022-10-16T07:16:47;18.80;82.70
51811;DHT22;52468;40.116;18.296;2022-10-16T07:19:15;19.00;83.00
51811;DHT22;52468;40.116;18.296;2022-10-16T07:21:45;19.10;83.00
51811;DHT22;52468;40.116;18.296;2022-10-16T07:24:15;19.30;83.00
51811;DHT22;52468;40.116;18.296;2022-10-16T07:26:44;19.50;82.80
51811;DHT22;52468;40.116;18.296;2022-10-16T07:29:17;19.60;82.50
51811;DHT22;52468;40.116;18.296;2022-10-16T07:31:45;19.80;82.80
51811;DHT22;52468;40.116;18.296;2022-10-16T07:34:14;19.90;82.00
51811;DHT22;52468;40.116;18.296;2022-10-16T07:36:42;20.10;83.00
51811;DHT22;52468;40.116;18.296;2022-10-16T07:39:10;20.20;82.60
51811;DHT22;52468;40.116;18.296;2022-10-16T07:41:39;20.30;81.30
51811;DHT22;52468;40.116;18.296;2022-10-16T07:44:07;20.50;81.20
51811;DHT22;52468;40.116;18.296;2022-10-16T07:46:36;20.50;81.00
51811;DHT22;52468;40.116;18.296;2022-10-16T07:49:03;20.50;79.70
51811;DHT22;52468;40.116;18.296;2022-10-16T07:51:31;20.50;79.20
51811;DHT22;52468;40.116;18.296;2022-10-16T07:53:59;20.60;81.20
51811;DHT22;52468;40.116;18.296;2022-10-16T07:56:27;20.80;80.50
51811;DHT22;52468;40.116;18.296;2022-10-16T07:58:57;20.90;79.70
51811;DHT22;52468;40.116;18.296;2022-10-16T08:01:25;21.00;79.40
51811;DHT22;52468;40.116;18.296;2022-10-16T08:03:53;21.10;79.20
51811;DHT22;52468;40.116;18.296;2022-10-16T08:06:21;21.20;79.40
51811;DHT22;52468;40.116;18.296;2022-10-16T08:08:50;21.30;78.80
51811;DHT22;52468;40.116;18.296;2022-10-16T08:11:18;21.50;78.60
51811;DHT22;52468;40.116;18.296;2022-10-16T08:13:46;21.50;79.20
51811;DHT22;52468;40.116;18.296;2022-10-16T08:16:13;21.50;77.60
51811;DHT22;52468;40.116;18.296;2022-10-16T08:18:41;21.50;76.60
51811;DHT22;52468;40.116;18.296;2022-10-16T08:21:14;21.60;78.00
51811;DHT22;52468;40.116;18.296;2022-10-16T08:23:43;21.80;76.90
51811;DHT22;52468;40.116;18.296;2022-10-16T08:26:12;21.80;75.30
51811;DHT22;52468;40.116;18.296;2022-10-16T08:28:40;21.80;74.20
51811;DHT22;52468;40.116;18.296;2022-10-16T08:31:15;21.90;73.70
51811;DHT22;52468;40.116;18.296;2022-10-16T08:33:48;22.00;73.90
51811;DHT22;52468;40.116;18.296;2022-10-16T08:36:17;21.90;71.70
51811;DHT22;52468;40.116;18.296;2022-10-16T08:38:48;22.00;72.20
51811;DHT22;52468;40.116;18.296;2022-10-16T08:47:26;22.20;70.10
51811;DHT22;52468;40.116;18.296;2022-10-16T08:50:08;22.40;71.80
51811;DHT22;52468;40.116;18.296;2022-10-16T08:52:40;22.60;70.00
51811;DHT22;52468;40.116;18.296;2022-10-16T08:58:14;22.60;67.80
51811;DHT22;52468;40.116;18.296;2022-10-16T09:00:54;22.70;68.10
51811;DHT22;52468;40.116;18.296;2022-10-16T09:04:37;22.60;67.20
51811;DHT22;52468;40.116;18.296;2022-10-16T09:06:53;22.60;67.40
51811;DHT22;52468;40.116;18.296;2022-10-16T09:12:14;22.80;67.00
51811;DHT22;52468;40.116;18.296;2022-10-16T09:25:32;23.00;62.90
51811;DHT22;52468;40.116;18.296;2022-10-16T09:28:01;23.10;63.40
51811;DHT22;52468;40.116;18.296;2022-10-16T09:30:29;23.20;63.20
51811;DHT22;52468;40.116;18.296;2022-10-16T09:32:58;23.20;62.60
51811;DHT22;52468;40.116;18.296;2022-10-16T09:35:33;23.30;62.30
51811;DHT22;52468;40.116;18.296;2022-10-16T09:38:02;23.30;62.50
51811;DHT22;52468;40.116;18.296;2022-10-16T09:40:35;23.40;62.00
51811;DHT22;52468;40.116;18.296;2022-10-16T09:45:41;23.20;61.40
51811;DHT22;52468;40.116;18.296;2022-10-16T09:48:13;23.20;61.00
51811;DHT22;52468;40.116;18.296;2022-10-16T09:50:59;23.50;59.90
51811;DHT22;52468;40.116;18.296;2022-10-16T09:53:43;23.50;59.60
51811;DHT22;52468;40.116;18.296;2022-10-16T09:56:12;23.70;59.30
51811;DHT22;52468;40.116;18.296;2022-10-16T09:58:56;23.80;57.60
51811;DHT22;52468;40.116;18.296;2022-10-16T10:01:50;23.90;57.50
51811;DHT22;52468;40.116;18.296;2022-10-16T10:04:22;23.90;57.30
51811;DHT22;52468;40.116;18.296;2022-10-16T10:06:55;24.00;57.40
51811;DHT22;52468;40.116;18.296;2022-10-16T10:11:54;23.90;57.60
51811;DHT22;52468;40.116;18.296;2022-10-16T10:16:52;23.90;57.60
51811;DHT22;52468;40.116;18.296;2022-10-16T10:19:23;24.00;58.10
51811;DHT22;52468;40.116;18.296;2022-10-16T10:21:52;24.00;56.80
51811;DHT22;52468;40.116;18.296;2022-10-16T10:24:20;24.00;55.60
51811;DHT22;52468;40.116;18.296;2022-10-16T10:26:59;24.10;56.00
51811;DHT22;52468;40.116;18.296;2022-10-16T10:40:39;24.20;55.40
51811;DHT22;52468;40.116;18.296;2022-10-16T10:46:02;24.30;56.10
51811;DHT22;52468;40.116;18.296;2022-10-16T10:53:54;24.50;55.10
51811;DHT22;52468;40.116;18.296;2022-10-16T10:56:45;24.50;54.20
51811;DHT22;52468;40.116;18.296;2022-10-16T10:59:31;24.60;54.50
51811;DHT22;52468;40.116;18.296;2022-10-16T11:04:52;24.70;54.00
51811;DHT22;52468;40.116;18.296;2022-10-16T11:07:34;24.60;54.50
51811;DHT22;52468;40.116;18.296;2022-10-16T11:10:13;24.40;54.80
51811;DHT22;52468;40.116;18.296;2022-10-16T11:12:45;24.50;55.20
51811;DHT22;52468;40.116;18.296;2022-10-16T11:15:23;24.60;54.50
51811;DHT22;52468;40.116;18.296;2022-10-16T11:20:54;24.50;54.80
51811;DHT22;52468;40.116;18.296;2022-10-16T11:23:42;24.60;54.90
51811;DHT22;52468;40.116;18.296;2022-10-16T11:26:16;24.70;55.00
51811;DHT22;52468;40.116;18.296;2022-10-16T11:28:53;24.60;54.80
51811;DHT22;52468;40.116;18.296;2022-10-16T11:31:35;24.60;55.00
51811;DHT22;52468;40.116;18.296;2022-10-16T11:34:41;24.60;53.10
51811;DHT22;52468;40.116;18.296;2022-10-16T11:37:16;24.60;53.40
51811;DHT22;52468;40.116;18.296;2022-10-16T11:39:45;24.60;54.90
51811;DHT22;52468;40.116;18.296;2022-10-16T11:42:34;24.80;54.50
51811;DHT22;52468;40.116;18.296;2022-10-16T11:47:44;24.80;54.20
51811;DHT22;52468;40.116;18.296;2022-10-16T11:55:40;24.80;54.50
51811;DHT22;52468;40.116;18.296;2022-10-16T12:01:03;24.80;54.20
51811;DHT22;52468;40.116;18.296;2022-10-16T12:03:35;24.80;53.70
51811;DHT22;52468;40.116;18.296;2022-10-16T12:06:42;24.80;55.30
51811;DHT22;52468;40.116;18.296;2022-10-16T12:09:19;24.80;55.00
51811;DHT22;52468;40.116;18.296;2022-10-16T12:11:48;24.80;54.60
51811;DHT22;52468;40.116;18.296;2022-10-16T12:14:21;24.80;53.40
51811;DHT22;52468;40.116;18.296;2022-10-16T12:16:57;24.80;53.60
51811;DHT22;52468;40.116;18.296;2022-10-16T12:19:29;24.90;54.20
51811;DHT22;52468;40.116;18.296;2022-10-16T12:22:00;24.60;55.50
51811;DHT22;52468;40.116;18.296;2022-10-16T12:24:39;24.60;55.00
51811;DHT22;52468;40.116;18.296;2022-10-16T12:27:40;24.50;55.80
51811;DHT22;52468;40.116;18.296;2022-10-16T12:30:22;24.50;56.30
51811;DHT22;52468;40.116;18.296;2022-10-16T12:32:56;24.50;55.80
51811;DHT22;52468;40.116;18.296;2022-10-16T12:35:29;24.50;55.60
51811;DHT22;52468;40.116;18.296;2022-10-16T12:38:17;24.70;56.00
51811;DHT22;52468;40.116;18.296;2022-10-16T12:40:56;24.60;55.70
51811;DHT22;52468;40.116;18.296;2022-10-16T12:43:35;24.70;55.20
51811;DHT22;52468;40.116;18.296;2022-10-16T12:46:33;24.80;54.50
51811;DHT22;52468;40.116;18.296;2022-10-16T12:49:29;24.70;54.10
51811;DHT22;52468;40.116;18.296;2022-10-16T12:51:58;24.60;54.30
51811;DHT22;52468;40.116;18.296;2022-10-16T12:54:35;24.60;54.10
51811;DHT22;52468;40.116;18.296;2022-10-16T13:06:17;24.40;56.80
51811;DHT22;52468;40.116;18.296;2022-10-16T13:09:08;24.50;54.90
51811;DHT22;52468;40.116;18.296;2022-10-16T13:20:34;24.20;57.10
51811;DHT22;52468;40.116;18.296;2022-10-16T13:28:28;24.10;56.60
51811;DHT22;52468;40.116;18.296;2022-10-16T13:30:58;24.10;56.40
51811;DHT22;52468;40.116;18.296;2022-10-16T13:33:33;24.10;56.90
51811;DHT22;52468;40.116;18.296;2022-10-16T13:36:04;24.00;56.50
51811;DHT22;52468;40.116;18.296;2022-10-16T13:38:35;24.00;55.90
51811;DHT22;52468;40.116;18.296;2022-10-16T13:41:05;24.00;55.70
51811;DHT22;52468;40.116;18.296;2022-10-16T13:43:45;23.90;55.40
51811;DHT22;52468;40.116;18.296;2022-10-16T13:46:16;23.80;56.00
51811;DHT22;52468;40.116;18.296;2022-10-16T13:48:45;23.90;56.80
51811;DHT22;52468;40.116;18.296;2022-10-16T13:51:23;23.80;57.70
51811;DHT22;52468;40.116;18.296;2022-10-16T13:53:51;23.90;57.70
51811;DHT22;52468;40.116;18.296;2022-10-16T13:56:21;24.00;56.50
51811;DHT22;52468;40.116;18.296;2022-10-16T13:59:04;24.10;55.60
51811;DHT22;52468;40.116;18.296;2022-10-16T14:01:41;24.00;56.60
51811;DHT22;52468;40.116;18.296;2022-10-16T14:04:11;24.00;56.90
51811;DHT22;52468;40.116;18.296;2022-10-16T14:06:43;24.00;56.50
51811;DHT22;52468;40.116;18.296;2022-10-16T14:09:25;23.90;56.20
51811;DHT22;52468;40.116;18.296;2022-10-16T14:12:00;23.80;55.80
51811;DHT22;52468;40.116;18.296;2022-10-16T14:14:40;23.70;57.00
51811;DHT22;52468;40.116;18.296;2022-10-16T14:17:34;23.70;57.40
51811;DHT22;52468;40.116;18.296;2022-10-16T14:20:05;23.60;58.10
51811;DHT22;52468;40.116;18.296;2022-10-16T14:22:39;23.60;58.70
51811;DHT22;52468;40.116;18.296;2022-10-16T14:30:27;23.90;56.90
51811;DHT22;52468;40.116;18.296;2022-10-16T14:33:18;24.10;56.10
51811;DHT22;52468;40.116;18.296;2022-10-16T14:35:46;24.50;54.60
51811;DHT22;52468;40.116;18.296;2022-10-16T14:38:24;25.10;53.20
51811;DHT22;52468;40.116;18.296;2022-10-16T14:40:52;26.00;51.10
51811;DHT22;52468;40.116;18.296;2022-10-16T14:43:24;26.10;50.40
51811;DHT22;52468;40.116;18.296;2022-10-16T15:05:42;23.00;60.60
51811;DHT22;52468;40.116;18.296;2022-10-16T15:08:10;22.60;61.70
51811;DHT22;52468;40.116;18.296;2022-10-16T15:10:41;22.40;63.00
51811;DHT22;52468;40.116;18.296;2022-10-16T15:13:13;22.30;63.30
51811;DHT22;52468;40.116;18.296;2022-10-16T15:15:45;22.00;64.10
51811;DHT22;52468;40.116;18.296;2022-10-16T15:18:14;21.90;64.40
51811;DHT22;52468;40.116;18.296;2022-10-16T15:20:49;21.70;64.80
51811;DHT22;52468;40.116;18.296;2022-10-16T15:23:21;21.60;64.80
51811;DHT22;52468;40.116;18.296;2022-10-16T15:25:54;21.50;64.70
51811;DHT22;52468;40.116;18.296;2022-10-16T15:28:24;21.50;65.30
51811;DHT22;52468;40.116;18.296;2022-10-16T15:30:55;21.40;65.70
51811;DHT22;52468;40.116;18.296;2022-10-16T15:33:25;21.30;65.80
51811;DHT22;52468;40.116;18.296;2022-10-16T15:35:55;21.20;66.10
51811;DHT22;52468;40.116;18.296;2022-10-16T15:38:23;21.10;66.50
51811;DHT22;52468;40.116;18.296;2022-10-16T15:40:52;21.10;66.90
51811;DHT22;52468;40.116;18.296;2022-10-16T15:43:20;21.00;67.10
51811;DHT22;52468;40.116;18.296;2022-10-16T15:46:02;21.00;67.50
51811;DHT22;52468;40.116;18.296;2022-10-16T15:48:31;20.90;67.70
51811;DHT22;52468;40.116;18.296;2022-10-16T15:51:00;20.90;68.40
51811;DHT22;52468;40.116;18.296;2022-10-16T15:53:28;20.80;68.40
51811;DHT22;52468;40.116;18.296;2022-10-16T15:55:56;20.70;69.20
51811;DHT22;52468;40.116;18.296;2022-10-16T15:58:24;20.60;69.70
51811;DHT22;52468;40.116;18.296;2022-10-16T16:00:56;20.50;70.10
51811;DHT22;52468;40.116;18.296;2022-10-16T16:03:24;20.40;70.40
51811;DHT22;52468;40.116;18.296;2022-10-16T16:05:52;20.30;70.70
51811;DHT22;52468;40.116;18.296;2022-10-16T16:08:20;20.30;71.00
51811;DHT22;52468;40.116;18.296;2022-10-16T16:10:59;20.20;71.20
51811;DHT22;52468;40.116;18.296;2022-10-16T16:13:26;20.10;71.50
51811;DHT22;52468;40.116;18.296;2022-10-16T16:15:54;20.00;71.90
51811;DHT22;52468;40.116;18.296;2022-10-16T16:18:23;20.00;72.30
51811;DHT22;52468;40.116;18.296;2022-10-16T16:20:51;19.90;72.50
51811;DHT22;52468;40.116;18.296;2022-10-16T16:23:19;19.80;73.00
51811;DHT22;52468;40.116;18.296;2022-10-16T16:26:15;19.70;73.60
51811;DHT22;52468;40.116;18.296;2022-10-16T16:28:49;19.60;73.80
51811;DHT22;52468;40.116;18.296;2022-10-16T16:31:17;19.60;74.10
51811;DHT22;52468;40.116;18.296;2022-10-16T16:33:44;19.50;74.50
51811;DHT22;52468;40.116;18.296;2022-10-16T16:36:13;19.50;74.80
51811;DHT22;52468;40.116;18.296;2022-10-16T16:38:42;19.40;75.40
51811;DHT22;52468;40.116;18.296;2022-10-16T16:41:13;19.30;75.40
51811;DHT22;52468;40.116;18.296;2022-10-16T16:43:41;19.30;75.70
51811;DHT22;52468;40.116;18.296;2022-10-16T16:46:10;19.20;76.20
51811;DHT22;52468;40.116;18.296;2022-10-16T16:48:38;19.20;76.50
51811;DHT22;52468;40.116;18.296;2022-10-16T16:51:11;19.10;76.50
51811;DHT22;52468;40.116;18.296;2022-10-16T16:53:43;19.10;77.00
51811;DHT22;52468;40.116;18.296;2022-10-16T16:56:12;19.10;77.20
51811;DHT22;52468;40.116;18.296;2022-10-16T16:58:40;19.00;77.40
51811;DHT22;52468;40.116;18.296;2022-10-16T17:01:09;19.00;77.40
51811;DHT22;52468;40.116;18.296;2022-10-16T17:03:46;19.00;77.50
51811;DHT22;52468;40.116;18.296;2022-10-16T17:06:17;19.00;77.50
51811;DHT22;52468;40.116;18.296;2022-10-16T17:08:46;18.90;77.50
51811;DHT22;52468;40.116;18.296;2022-10-16T17:11:25;18.90;77.80
51811;DHT22;52468;40.116;18.296;2022-10-16T17:13:56;18.90;77.90
51811;DHT22;52468;40.116;18.296;2022-10-16T17:16:29;18.80;78.10
51811;DHT22;52468;40.116;18.296;2022-10-16T17:19:02;18.80;78.20
51811;DHT22;52468;40.116;18.296;2022-10-16T17:21:30;18.80;78.00
51811;DHT22;52468;40.116;18.296;2022-10-16T17:24:00;18.70;78.20
51811;DHT22;52468;40.116;18.296;2022-10-16T17:26:28;18.70;78.30
51811;DHT22;52468;40.116;18.296;2022-10-16T17:28:58;18.70;78.50
51811;DHT22;52468;40.116;18.296;2022-10-16T17:31:32;18.60;78.50
51811;DHT22;52468;40.116;18.296;2022-10-16T17:34:01;18.60;78.80
51811;DHT22;52468;40.116;18.296;2022-10-16T17:36:31;18.50;79.00
51811;DHT22;52468;40.116;18.296;2022-10-16T17:39:04;18.50;79.20
51811;DHT22;52468;40.116;18.296;2022-10-16T17:41:34;18.50;79.20
51811;DHT22;52468;40.116;18.296;2022-10-16T17:44:03;18.50;79.60
51811;DHT22;52468;40.116;18.296;2022-10-16T17:46:32;18.50;79.60
51811;DHT22;52468;40.116;18.296;2022-10-16T17:49:00;18.40;79.90
51811;DHT22;52468;40.116;18.296;2022-10-16T17:51:30;18.40;80.00
51811;DHT22;52468;40.116;18.296;2022-10-16T17:54:00;18.40;80.10
51811;DHT22;52468;40.116;18.296;2022-10-16T17:56:28;18.40;80.20